sensor_id;sensor_type;location;lat;lon;timestamp;pressure;altitude;pressure_sealevel;temperature;humidity
62374;BME280;48409;49.030;1.820;2022-11-14T00:02:06;100606.50;;;11.06;65.71
62374;BME280;48409;49.030;1.820;2022-11-14T00:04:31;100608.19;;;11.07;65.40
62374;BME280;48409;49.030;1.820;2022-11-14T00:06:57;100600.38;;;11.05;65.53
62374;BME280;48409;49.030;1.820;2022-11-14T00:09:26;100602.91;;;11.07;65.51
62374;BME280;48409;49.030;1.820;2022-11-14T00:11:52;100597.66;;;11.07;65.50
62374;BME280;48409;49.030;1.820;2022-11-14T00:14:18;100597.66;;;11.07;65.43
62374;BME280;48409;49.030;1.820;2022-11-14T00:16:43;100602.00;;;11.08;65.57
62374;BME280;48409;49.030;1.820;2022-11-14T00:19:09;100587.91;;;11.09;65.37
62374;BME280;48409;49.030;1.820;2022-11-14T00:21:34;100588.84;;;11.08;65.50
62374;BME280;48409;49.030;1.820;2022-11-14T00:23:59;100586.97;;;11.10;65.38
62374;BME280;48409;49.030;1.820;2022-11-14T00:26:25;100586.97;;;11.10;65.57
62374;BME280;48409;49.030;1.820;2022-11-14T00:28:50;100585.25;;;11.09;65.57
62374;BME280;48409;49.030;1.820;2022-11-14T00:31:16;100576.41;;;11.10;65.51
62374;BME280;48409;49.030;1.820;2022-11-14T00:33:41;100578.13;;;11.11;65.54
62374;BME280;48409;49.030;1.820;2022-11-14T00:36:07;100576.41;;;11.10;65.64
62374;BME280;48409;49.030;1.820;2022-11-14T00:38:32;100581.69;;;11.10;65.57
62374;BME280;48409;49.030;1.820;2022-11-14T00:40:58;100588.66;;;11.11;65.55
62374;BME280;48409;49.030;1.820;2022-11-14T00:43:23;100587.81;;;11.10;65.66
62374;BME280;48409;49.030;1.820;2022-11-14T00:45:51;100588.66;;;11.11;65.53
62374;BME280;48409;49.030;1.820;2022-11-14T00:48:17;100579.84;;;11.12;65.60
62374;BME280;48409;49.030;1.820;2022-11-14T00:50:42;100579.84;;;11.12;65.41
62374;BME280;48409;49.030;1.820;2022-11-14T00:53:08;100587.75;;;11.12;65.51
62374;BME280;48409;49.030;1.820;2022-11-14T00:55:33;100585.94;;;11.13;65.48
62374;BME280;48409;49.030;1.820;2022-11-14T00:57:59;100585.94;;;11.13;65.50
62374;BME280;48409;49.030;1.820;2022-11-14T01:00:24;100577.22;;;11.12;65.57
62374;BME280;48409;49.030;1.820;2022-11-14T01:02:50;100571.88;;;11.14;65.58
62374;BME280;48409;49.030;1.820;2022-11-14T01:05:15;100574.56;;;11.12;65.56
62374;BME280;48409;49.030;1.820;2022-11-14T01:07:41;100565.72;;;11.13;65.47
62374;BME280;48409;49.030;1.820;2022-11-14T01:10:06;100572.69;;;11.14;65.29
62374;BME280;48409;49.030;1.820;2022-11-14T01:12:33;100571.00;;;11.13;65.43
62374;BME280;48409;49.030;1.820;2022-11-14T01:14:58;100565.72;;;11.13;65.47
62374;BME280;48409;49.030;1.820;2022-11-14T01:17:24;100565.72;;;11.13;65.53
62374;BME280;48409;49.030;1.820;2022-11-14T01:19:52;100571.88;;;11.14;65.53
62374;BME280;48409;49.030;1.820;2022-11-14T01:22:18;100560.44;;;11.13;65.56
62374;BME280;48409;49.030;1.820;2022-11-14T01:24:43;100562.16;;;11.14;65.64
62374;BME280;48409;49.030;1.820;2022-11-14T01:27:09;100564.78;;;11.14;65.55
62374;BME280;48409;49.030;1.820;2022-11-14T01:29:34;100566.50;;;11.15;65.66
62374;BME280;48409;49.030;1.820;2022-11-14T01:31:59;100556.03;;;11.14;65.41
62374;BME280;48409;49.030;1.820;2022-11-14T01:34:25;100563.00;;;11.15;65.26
62374;BME280;48409;49.030;1.820;2022-11-14T01:36:51;100561.31;;;11.14;65.54
62374;BME280;48409;49.030;1.820;2022-11-14T01:39:16;100561.31;;;11.14;65.40
62374;BME280;48409;49.030;1.820;2022-11-14T01:41:42;100558.75;;;11.12;65.39
62374;BME280;48409;49.030;1.820;2022-11-14T01:44:12;100560.44;;;11.13;65.41
62374;BME280;48409;49.030;1.820;2022-11-14T01:46:39;100559.50;;;11.14;65.39
62374;BME280;48409;49.030;1.820;2022-11-14T01:49:21;100561.38;;;11.12;65.47
62374;BME280;48409;49.030;1.820;2022-11-14T01:54:29;100560.44;;;11.13;65.33
62374;BME280;48409;49.030;1.820;2022-11-14T01:56:58;100560.59;;;11.10;65.39
62374;BME280;48409;49.030;1.820;2022-11-14T01:59:28;100561.38;;;11.12;65.33
62374;BME280;48409;49.030;1.820;2022-11-14T02:01:56;100560.59;;;11.10;65.39
62374;BME280;48409;49.030;1.820;2022-11-14T02:04:32;100551.00;;;11.09;65.35
62374;BME280;48409;49.030;1.820;2022-11-14T02:07:01;100558.91;;;11.09;65.41
62374;BME280;48409;49.030;1.820;2022-11-14T02:09:29;100554.56;;;11.08;65.47
62374;BME280;48409;49.030;1.820;2022-11-14T02:11:58;100551.94;;;11.08;65.30
62374;BME280;48409;49.030;1.820;2022-11-14T02:14:26;100551.00;;;11.09;65.58
62374;BME280;48409;49.030;1.820;2022-11-14T02:16:52;100546.66;;;11.08;65.40
62374;BME280;48409;49.030;1.820;2022-11-14T02:19:18;100548.44;;;11.07;65.56
62374;BME280;48409;49.030;1.820;2022-11-14T02:21:43;100544.94;;;11.07;65.36
62374;BME280;48409;49.030;1.820;2022-11-14T02:24:10;100544.03;;;11.08;65.32
62374;BME280;48409;49.030;1.820;2022-11-14T02:26:36;100531.75;;;11.07;65.44
62374;BME280;48409;49.030;1.820;2022-11-14T02:29:03;100536.13;;;11.08;65.41
62374;BME280;48409;49.030;1.820;2022-11-14T02:31:29;100527.41;;;11.06;65.47
62374;BME280;48409;49.030;1.820;2022-11-14T02:33:54;100526.59;;;11.05;65.27
62374;BME280;48409;49.030;1.820;2022-11-14T02:36:20;100513.41;;;11.05;65.29
62374;BME280;48409;49.030;1.820;2022-11-14T02:38:45;100510.78;;;11.05;65.23
62374;BME280;48409;49.030;1.820;2022-11-14T02:41:11;100506.31;;;11.06;65.24
62374;BME280;48409;49.030;1.820;2022-11-14T02:43:36;100507.28;;;11.05;65.28
62374;BME280;48409;49.030;1.820;2022-11-14T02:46:01;100502.94;;;11.04;65.49
62374;BME280;48409;49.030;1.820;2022-11-14T02:48:27;100508.22;;;11.04;65.42
62374;BME280;48409;49.030;1.820;2022-11-14T02:50:52;100503.88;;;11.03;65.38
62374;BME280;48409;49.030;1.820;2022-11-14T02:53:17;100509.16;;;11.03;65.33
62374;BME280;48409;49.030;1.820;2022-11-14T02:55:43;100506.50;;;11.03;65.33
62374;BME280;48409;49.030;1.820;2022-11-14T02:58:08;100494.25;;;11.02;65.23
62374;BME280;48409;49.030;1.820;2022-11-14T03:00:33;100502.16;;;11.02;65.22
62374;BME280;48409;49.030;1.820;2022-11-14T03:02:59;100494.25;;;11.02;65.39
62374;BME280;48409;49.030;1.820;2022-11-14T03:05:24;100499.50;;;11.02;65.36
62374;BME280;48409;49.030;1.820;2022-11-14T03:07:54;100499.50;;;11.02;65.41
62374;BME280;48409;49.030;1.820;2022-11-14T03:10:20;100494.25;;;11.02;65.22
62374;BME280;48409;49.030;1.820;2022-11-14T03:12:46;100493.41;;;11.01;65.31
62374;BME280;48409;49.030;1.820;2022-11-14T03:15:11;100497.81;;;11.01;65.40
62374;BME280;48409;49.030;1.820;2022-11-14T03:17:37;100497.81;;;11.01;65.42
62374;BME280;48409;49.030;1.820;2022-11-14T03:20:03;100501.38;;;11.00;65.42
62374;BME280;48409;49.030;1.820;2022-11-14T03:22:29;100502.22;;;11.00;65.26
62374;BME280;48409;49.030;1.820;2022-11-14T03:24:54;100493.47;;;11.00;65.33
62374;BME280;48409;49.030;1.820;2022-11-14T03:27:20;100489.16;;;10.99;65.38
62374;BME280;48409;49.030;1.820;2022-11-14T03:29:48;100485.56;;;11.00;65.36
62374;BME280;48409;49.030;1.820;2022-11-14T03:32:14;100484.72;;;10.99;65.32
62374;BME280;48409;49.030;1.820;2022-11-14T03:34:40;100475.97;;;10.99;65.29
62374;BME280;48409;49.030;1.820;2022-11-14T03:37:08;100477.66;;;11.00;65.43
62374;BME280;48409;49.030;1.820;2022-11-14T03:39:33;100485.56;;;11.00;65.32
62374;BME280;48409;49.030;1.820;2022-11-14T03:41:58;100483.00;;;10.98;65.29
62374;BME280;48409;49.030;1.820;2022-11-14T03:44:24;100483.88;;;10.99;65.45
62374;BME280;48409;49.030;1.820;2022-11-14T03:46:50;100470.69;;;10.99;65.26
62374;BME280;48409;49.030;1.820;2022-11-14T03:49:16;100467.28;;;10.96;65.42
62374;BME280;48409;49.030;1.820;2022-11-14T03:51:41;100468.06;;;10.99;65.13
62374;BME280;48409;49.030;1.820;2022-11-14T03:54:07;100472.53;;;10.96;65.39
62374;BME280;48409;49.030;1.820;2022-11-14T03:56:32;100477.81;;;10.96;65.38
62374;BME280;48409;49.030;1.820;2022-11-14T04:10:08;100461.41;;;11.91;65.06
62374;BME280;48409;49.030;1.820;2022-11-14T04:12:33;100455.81;;;11.97;65.01
62374;BME280;48409;49.030;1.820;2022-11-14T04:14:59;100456.69;;;11.98;64.62
62374;BME280;48409;49.030;1.820;2022-11-14T04:17:24;100462.19;;;11.93;64.46
62374;BME280;48409;49.030;1.820;2022-11-14T04:19:49;100463.47;;;11.86;64.38
62374;BME280;48409;49.030;1.820;2022-11-14T04:22:15;100468.22;;;11.79;64.30
62374;BME280;48409;49.030;1.820;2022-11-14T04:24:40;100464.31;;;11.70;64.63
62374;BME280;48409;49.030;1.820;2022-11-14T04:27:06;100456.81;;;11.62;64.43
62374;BME280;48409;49.030;1.820;2022-11-14T04:29:31;100468.56;;;11.57;64.41
62374;BME280;48409;49.030;1.820;2022-11-14T04:35:20;100453.63;;;11.40;64.26
62374;BME280;48409;49.030;1.820;2022-11-14T04:37:46;100453.00;;;11.34;64.44
62374;BME280;48409;49.030;1.820;2022-11-14T04:40:11;100450.72;;;11.28;64.20
62374;BME280;48409;49.030;1.820;2022-11-14T04:42:37;100445.69;;;11.23;64.54
62374;BME280;48409;49.030;1.820;2022-11-14T04:45:02;100449.41;;;11.19;64.62
62374;BME280;48409;49.030;1.820;2022-11-14T04:47:28;100444.31;;;11.16;64.51
62374;BME280;48409;49.030;1.820;2022-11-14T04:49:53;100449.75;;;11.13;64.41
62374;BME280;48409;49.030;1.820;2022-11-14T04:52:19;100451.59;;;11.11;64.48
62374;BME280;48409;49.030;1.820;2022-11-14T04:54:44;100453.53;;;11.07;64.59
62374;BME280;48409;49.030;1.820;2022-11-14T04:57:09;100444.09;;;11.03;64.44
62374;BME280;48409;49.030;1.820;2022-11-14T04:59:35;100445.97;;;11.01;64.62
62374;BME280;48409;49.030;1.820;2022-11-14T05:02:00;100443.41;;;11.00;64.69
62374;BME280;48409;49.030;1.820;2022-11-14T05:04:29;100442.63;;;10.97;64.53
62374;BME280;48409;49.030;1.820;2022-11-14T05:06:55;100444.41;;;10.97;64.85
62374;BME280;48409;49.030;1.820;2022-11-14T05:09:20;100438.44;;;10.93;64.60
62374;BME280;48409;49.030;1.820;2022-11-14T05:11:45;100436.72;;;10.92;64.51
62374;BME280;48409;49.030;1.820;2022-11-14T05:14:11;100432.41;;;10.91;64.81
62374;BME280;48409;49.030;1.820;2022-11-14T05:16:36;100418.47;;;10.89;64.61
62374;BME280;48409;49.030;1.820;2022-11-14T05:19:02;100416.75;;;10.88;64.73
62374;BME280;48409;49.030;1.820;2022-11-14T05:21:27;100422.00;;;10.88;64.79
62374;BME280;48409;49.030;1.820;2022-11-14T05:23:53;100418.53;;;10.88;64.86
62374;BME280;48409;49.030;1.820;2022-11-14T05:26:18;100419.56;;;10.85;64.66
62374;BME280;48409;49.030;1.820;2022-11-14T05:28:44;100418.69;;;10.84;64.76
62374;BME280;48409;49.030;1.820;2022-11-14T05:31:11;100409.94;;;10.84;64.65
62374;BME280;48409;49.030;1.820;2022-11-14T05:33:38;100404.72;;;10.82;64.75
62374;BME280;48409;49.030;1.820;2022-11-14T05:36:12;100402.19;;;10.81;64.86
62374;BME280;48409;49.030;1.820;2022-11-14T05:38:38;100403.03;;;10.81;64.67
62374;BME280;48409;49.030;1.820;2022-11-14T05:43:32;100398.78;;;10.79;64.77
62374;BME280;48409;49.030;1.820;2022-11-14T05:46:02;100392.69;;;10.78;64.79
62374;BME280;48409;49.030;1.820;2022-11-14T05:48:28;100401.41;;;10.79;64.94
62374;BME280;48409;49.030;1.820;2022-11-14T05:50:55;100391.81;;;10.78;64.94
62374;BME280;48409;49.030;1.820;2022-11-14T05:53:20;100398.03;;;10.77;64.93
62374;BME280;48409;49.030;1.820;2022-11-14T05:55:46;100398.94;;;10.76;64.63
62374;BME280;48409;49.030;1.820;2022-11-14T05:58:11;100391.13;;;10.74;64.97
62374;BME280;48409;49.030;1.820;2022-11-14T06:00:36;100391.97;;;10.75;64.92
62374;BME280;48409;49.030;1.820;2022-11-14T06:03:02;100388.56;;;10.73;64.63
62374;BME280;48409;49.030;1.820;2022-11-14T06:05:27;100384.25;;;10.72;64.97
62374;BME280;48409;49.030;1.820;2022-11-14T06:07:57;100384.25;;;10.72;64.65
62374;BME280;48409;49.030;1.820;2022-11-14T06:10:26;100393.06;;;10.70;64.74
62374;BME280;48409;49.030;1.820;2022-11-14T06:12:52;100383.44;;;10.69;64.87
62374;BME280;48409;49.030;1.820;2022-11-14T06:15:18;100384.31;;;10.70;64.77
62374;BME280;48409;49.030;1.820;2022-11-14T06:17:43;100380.06;;;10.67;64.54
62374;BME280;48409;49.030;1.820;2022-11-14T06:20:09;100386.16;;;10.68;64.83
62374;BME280;48409;49.030;1.820;2022-11-14T06:22:34;100382.75;;;10.66;64.72
62374;BME280;48409;49.030;1.820;2022-11-14T06:25:03;100377.56;;;10.64;64.64
62374;BME280;48409;49.030;1.820;2022-11-14T06:27:29;100383.72;;;10.65;64.74
62374;BME280;48409;49.030;1.820;2022-11-14T06:29:54;100379.41;;;10.62;64.98
62374;BME280;48409;49.030;1.820;2022-11-14T06:32:20;100387.31;;;10.62;64.79
62374;BME280;48409;49.030;1.820;2022-11-14T06:34:45;100378.59;;;10.62;64.82
62374;BME280;48409;49.030;1.820;2022-11-14T06:37:10;100380.34;;;10.61;64.62
62374;BME280;48409;49.030;1.820;2022-11-14T06:39:36;100387.50;;;10.59;64.79
62374;BME280;48409;49.030;1.820;2022-11-14T06:42:01;100391.81;;;10.60;64.77
62374;BME280;48409;49.030;1.820;2022-11-14T06:44:27;100396.31;;;10.58;64.76
62374;BME280;48409;49.030;1.820;2022-11-14T06:46:54;100402.50;;;10.57;64.46
62374;BME280;48409;49.030;1.820;2022-11-14T06:49:20;100401.56;;;10.58;64.76
62374;BME280;48409;49.030;1.820;2022-11-14T06:51:46;100395.53;;;10.56;64.79
62374;BME280;48409;49.030;1.820;2022-11-14T06:54:20;100403.44;;;10.56;64.58
62374;BME280;48409;49.030;1.820;2022-11-14T06:56:45;100407.84;;;10.55;64.69
62374;BME280;48409;49.030;1.820;2022-11-14T06:59:11;100399.19;;;10.53;64.78
62374;BME280;48409;49.030;1.820;2022-11-14T07:01:36;100408.84;;;10.53;64.73
62374;BME280;48409;49.030;1.820;2022-11-14T07:04:02;100400.97;;;10.53;64.68
62374;BME280;48409;49.030;1.820;2022-11-14T07:06:28;100397.56;;;10.51;64.74
62374;BME280;48409;49.030;1.820;2022-11-14T07:08:55;100404.59;;;10.50;64.64
62374;BME280;48409;49.030;1.820;2022-11-14T07:11:23;100408.16;;;10.49;64.85
62374;BME280;48409;49.030;1.820;2022-11-14T07:14:00;100409.88;;;10.50;64.54
62374;BME280;48409;49.030;1.820;2022-11-14T07:16:28;100404.69;;;10.49;64.85
62374;BME280;48409;49.030;1.820;2022-11-14T07:18:55;100409.94;;;10.49;64.68
62374;BME280;48409;49.030;1.820;2022-11-14T07:21:21;100417.84;;;10.49;64.68
62374;BME280;48409;49.030;1.820;2022-11-14T07:23:46;100423.22;;;10.47;64.78
62374;BME280;48409;49.030;1.820;2022-11-14T07:26:12;100425.84;;;10.47;64.66
62374;BME280;48409;49.030;1.820;2022-11-14T07:28:41;100430.25;;;10.47;64.67
62374;BME280;48409;49.030;1.820;2022-11-14T07:31:11;100424.97;;;10.47;64.60
62374;BME280;48409;49.030;1.820;2022-11-14T07:33:37;100412.75;;;10.46;64.71
62374;BME280;48409;49.030;1.820;2022-11-14T07:36:04;100406.63;;;10.45;64.64
62374;BME280;48409;49.030;1.820;2022-11-14T07:38:30;100404.94;;;10.44;64.74
62374;BME280;48409;49.030;1.820;2022-11-14T07:40:58;100413.66;;;10.44;64.81
62374;BME280;48409;49.030;1.820;2022-11-14T07:43:24;100409.38;;;10.42;64.48
62374;BME280;48409;49.030;1.820;2022-11-14T07:45:50;100411.16;;;10.41;64.68
62374;BME280;48409;49.030;1.820;2022-11-14T07:48:16;100409.28;;;10.43;64.82
62374;BME280;48409;49.030;1.820;2022-11-14T07:50:42;100400.63;;;10.41;64.79
62374;BME280;48409;49.030;1.820;2022-11-14T07:53:08;100390.09;;;10.41;64.54
62374;BME280;48409;49.030;1.820;2022-11-14T07:55:40;100405.91;;;10.41;64.70
62374;BME280;48409;49.030;1.820;2022-11-14T07:58:05;100409.38;;;10.42;64.79
62374;BME280;48409;49.030;1.820;2022-11-14T08:00:30;100426.97;;;10.41;64.77
62374;BME280;48409;49.030;1.820;2022-11-14T08:02:56;100412.88;;;10.42;64.71
62374;BME280;48409;49.030;1.820;2022-11-14T08:05:21;100411.16;;;10.41;64.77
62374;BME280;48409;49.030;1.820;2022-11-14T08:07:50;100415.50;;;10.42;64.76
62374;BME280;48409;49.030;1.820;2022-11-14T08:10:17;100411.16;;;10.41;64.61
62374;BME280;48409;49.030;1.820;2022-11-14T08:12:45;100408.59;;;10.40;64.71
62374;BME280;48409;49.030;1.820;2022-11-14T08:15:13;100416.44;;;10.41;64.80
62374;BME280;48409;49.030;1.820;2022-11-14T08:17:39;100421.69;;;10.41;64.67
62374;BME280;48409;49.030;1.820;2022-11-14T08:20:06;100421.69;;;10.41;64.75
62374;BME280;48409;49.030;1.820;2022-11-14T08:22:32;100421.69;;;10.41;64.68
62374;BME280;48409;49.030;1.820;2022-11-14T08:24:57;100424.34;;;10.41;64.68
62374;BME280;48409;49.030;1.820;2022-11-14T08:27:23;100415.56;;;10.41;64.92
62374;BME280;48409;49.030;1.820;2022-11-14T08:29:49;100410.22;;;10.42;64.57
62374;BME280;48409;49.030;1.820;2022-11-14T08:32:18;100412.88;;;10.42;64.81
62374;BME280;48409;49.030;1.820;2022-11-14T08:34:43;100406.72;;;10.42;64.65
62374;BME280;48409;49.030;1.820;2022-11-14T08:37:09;100404.03;;;10.43;64.46
62374;BME280;48409;49.030;1.820;2022-11-14T08:39:34;100401.41;;;10.43;64.76
62374;BME280;48409;49.030;1.820;2022-11-14T08:41:59;100396.13;;;10.43;64.76
62374;BME280;48409;49.030;1.820;2022-11-14T08:44:25;100395.22;;;10.44;64.79
62374;BME280;48409;49.030;1.820;2022-11-14T08:46:50;100400.41;;;10.46;64.67
62374;BME280;48409;49.030;1.820;2022-11-14T08:49:16;100403.06;;;10.46;64.63
62374;BME280;48409;49.030;1.820;2022-11-14T08:51:41;100403.91;;;10.47;64.67
62374;BME280;48409;49.030;1.820;2022-11-14T08:54:06;100398.66;;;10.47;64.76
62374;BME280;48409;49.030;1.820;2022-11-14T08:56:32;100400.34;;;10.48;64.63
62374;BME280;48409;49.030;1.820;2022-11-14T08:58:57;100401.22;;;10.48;64.69
62374;BME280;48409;49.030;1.820;2022-11-14T09:01:23;100393.31;;;10.48;64.66
62374;BME280;48409;49.030;1.820;2022-11-14T09:03:49;100391.50;;;10.49;65.03
62374;BME280;48409;49.030;1.820;2022-11-14T09:06:15;100400.19;;;10.51;64.90
62374;BME280;48409;49.030;1.820;2022-11-14T09:08:40;100398.50;;;10.50;64.86
62374;BME280;48409;49.030;1.820;2022-11-14T09:11:05;100396.63;;;10.52;64.65
62374;BME280;48409;49.030;1.820;2022-11-14T09:13:34;100402.75;;;10.52;64.88
62374;BME280;48409;49.030;1.820;2022-11-14T09:16:00;100398.31;;;10.53;64.91
62374;BME280;48409;49.030;1.820;2022-11-14T09:18:25;100393.06;;;10.53;64.89
62374;BME280;48409;49.030;1.820;2022-11-14T09:20:51;100393.84;;;10.55;64.75
62374;BME280;48409;49.030;1.820;2022-11-14T09:23:17;100390.34;;;10.54;64.95
62374;BME280;48409;49.030;1.820;2022-11-14T09:25:44;100391.22;;;10.55;64.93
62374;BME280;48409;49.030;1.820;2022-11-14T09:28:10;100392.91;;;10.56;64.89
62374;BME280;48409;49.030;1.820;2022-11-14T09:30:36;100394.53;;;10.58;64.95
62374;BME280;48409;49.030;1.820;2022-11-14T09:33:03;100381.38;;;10.58;64.96
62374;BME280;48409;49.030;1.820;2022-11-14T09:35:29;100386.50;;;10.62;65.16
62374;BME280;48409;49.030;1.820;2022-11-14T09:38:03;100376.78;;;10.62;64.85
62374;BME280;48409;49.030;1.820;2022-11-14T09:40:30;100380.22;;;10.64;65.06
62374;BME280;48409;49.030;1.820;2022-11-14T09:46:03;100368.72;;;10.65;65.14
62374;BME280;48409;49.030;1.820;2022-11-14T09:48:34;100378.34;;;10.66;65.07
62374;BME280;48409;49.030;1.820;2022-11-14T09:51:16;100380.88;;;10.68;64.88
62374;BME280;48409;49.030;1.820;2022-11-14T09:53:49;100378.25;;;10.68;65.04
62374;BME280;48409;49.030;1.820;2022-11-14T09:56:20;100393.06;;;10.70;64.93
62374;BME280;48409;49.030;1.820;2022-11-14T09:58:47;100397.41;;;10.72;64.95
62374;BME280;48409;49.030;1.820;2022-11-14T10:01:17;100399.94;;;10.73;65.27
62374;BME280;48409;49.030;1.820;2022-11-14T10:03:50;100397.22;;;10.75;65.12
62374;BME280;48409;49.030;1.820;2022-11-14T10:06:42;100407.69;;;10.76;65.05
62374;BME280;48409;49.030;1.820;2022-11-14T10:12:04;100397.09;;;10.78;65.07
62374;BME280;48409;49.030;1.820;2022-11-14T10:23:09;100388.09;;;10.82;65.02
62374;BME280;48409;49.030;1.820;2022-11-14T10:25:59;100388.84;;;10.84;65.14
62374;BME280;48409;49.030;1.820;2022-11-14T10:28:37;100379.25;;;10.83;65.33
62374;BME280;48409;49.030;1.820;2022-11-14T10:31:16;100371.28;;;10.84;65.31
62374;BME280;48409;49.030;1.820;2022-11-14T10:39:17;100380.63;;;10.90;65.35
62374;BME280;48409;49.030;1.820;2022-11-14T10:41:49;100365.59;;;10.92;65.35
62374;BME280;48409;49.030;1.820;2022-11-14T10:44:22;100368.94;;;10.96;65.39
62374;BME280;48409;49.030;1.820;2022-11-14T10:46:54;100363.66;;;10.96;65.29
62374;BME280;48409;49.030;1.820;2022-11-14T10:49:23;100360.84;;;10.99;65.41
62374;BME280;48409;49.030;1.820;2022-11-14T10:52:01;100371.31;;;11.01;65.40
62374;BME280;48409;49.030;1.820;2022-11-14T10:54:45;100356.16;;;11.04;65.40
62374;BME280;48409;49.030;1.820;2022-11-14T10:57:18;100367.56;;;11.05;65.32
62374;BME280;48409;49.030;1.820;2022-11-14T10:59:43;100346.34;;;11.08;65.65
62374;BME280;48409;49.030;1.820;2022-11-14T11:02:09;100358.56;;;11.09;65.47
62374;BME280;48409;49.030;1.820;2022-11-14T11:04:36;100335.59;;;11.11;65.48
62374;BME280;48409;49.030;1.820;2022-11-14T11:09:38;100340.56;;;11.17;65.77
62374;BME280;48409;49.030;1.820;2022-11-14T11:12:42;100329.06;;;11.18;65.63
62374;BME280;48409;49.030;1.820;2022-11-14T11:20:36;100324.25;;;11.27;65.53
62374;BME280;48409;49.030;1.820;2022-11-14T11:23:46;100317.09;;;11.29;65.88
62374;BME280;48409;49.030;1.820;2022-11-14T11:26:01;100318.63;;;11.33;65.73
62374;BME280;48409;49.030;1.820;2022-11-14T11:28:35;100307.91;;;11.36;65.64
62374;BME280;48409;49.030;1.820;2022-11-14T11:33:36;100300.59;;;11.41;65.82
62374;BME280;48409;49.030;1.820;2022-11-14T11:36:05;100282.91;;;11.43;65.88
62374;BME280;48409;49.030;1.820;2022-11-14T11:38:32;100288.84;;;11.47;65.87
62374;BME280;48409;49.030;1.820;2022-11-14T11:41:14;100285.97;;;11.52;65.86
62374;BME280;48409;49.030;1.820;2022-11-14T11:43:53;100291.03;;;11.55;65.92
62374;BME280;48409;49.030;1.820;2022-11-14T11:51:53;100290.63;;;11.62;66.01
62374;BME280;48409;49.030;1.820;2022-11-14T11:57:43;100277.06;;;11.69;66.01
62374;BME280;48409;49.030;1.820;2022-11-14T12:00:16;100272.47;;;11.72;65.82
62374;BME280;48409;49.030;1.820;2022-11-14T12:02:50;100258.31;;;11.73;66.05
62374;BME280;48409;49.030;1.820;2022-11-14T12:08:36;100260.63;;;11.80;65.87
62374;BME280;48409;49.030;1.820;2022-11-14T12:10:58;100250.81;;;11.82;65.76
62374;BME280;48409;49.030;1.820;2022-11-14T12:16:22;100254.22;;;11.84;65.73
62374;BME280;48409;49.030;1.820;2022-11-14T12:21:50;100243.50;;;11.87;65.78
62374;BME280;48409;49.030;1.820;2022-11-14T12:24:58;100239.91;;;11.88;65.60
62374;BME280;48409;49.030;1.820;2022-11-14T12:30:20;100239.06;;;11.87;65.78
62374;BME280;48409;49.030;1.820;2022-11-14T12:33:08;100232.00;;;11.88;65.55
62374;BME280;48409;49.030;1.820;2022-11-14T12:35:35;100245.19;;;11.88;65.61
62374;BME280;48409;49.030;1.820;2022-11-14T12:38:12;100236.34;;;11.89;65.69
62374;BME280;48409;49.030;1.820;2022-11-14T12:40:57;100238.03;;;11.90;65.59
62374;BME280;48409;49.030;1.820;2022-11-14T12:43:32;100236.16;;;11.92;65.73
62374;BME280;48409;49.030;1.820;2022-11-14T12:46:01;100232.56;;;11.93;65.57
62374;BME280;48409;49.030;1.820;2022-11-14T12:48:31;100223.72;;;11.94;65.70
62374;BME280;48409;49.030;1.820;2022-11-14T12:50:58;100220.13;;;11.95;65.71
62374;BME280;48409;49.030;1.820;2022-11-14T12:56:20;100209.41;;;11.98;65.74
62374;BME280;48409;49.030;1.820;2022-11-14T13:07:23;100207.31;;;12.04;65.84
62374;BME280;48409;49.030;1.820;2022-11-14T13:10:09;100194.94;;;12.06;66.13
62374;BME280;48409;49.030;1.820;2022-11-14T13:12:37;100194.72;;;12.09;66.06
62374;BME280;48409;49.030;1.820;2022-11-14T13:15:46;100195.41;;;12.12;65.97
62374;BME280;48409;49.030;1.820;2022-11-14T13:18:32;100183.63;;;12.18;66.23
62374;BME280;48409;49.030;1.820;2022-11-14T13:24:03;100184.19;;;12.23;66.29
62374;BME280;48409;49.030;1.820;2022-11-14T13:28:54;100182.84;;;12.31;66.26
62374;BME280;48409;49.030;1.820;2022-11-14T13:31:42;100178.16;;;12.36;66.20
62374;BME280;48409;49.030;1.820;2022-11-14T13:37:11;100170.78;;;12.41;66.39
62374;BME280;48409;49.030;1.820;2022-11-14T13:42:27;100154.56;;;12.47;66.25
62374;BME280;48409;49.030;1.820;2022-11-14T13:45:03;100153.41;;;12.51;66.47
62374;BME280;48409;49.030;1.820;2022-11-14T13:50:27;100147.72;;;12.58;66.32
62374;BME280;48409;49.030;1.820;2022-11-14T13:52:54;100150.97;;;12.63;66.61
62374;BME280;48409;49.030;1.820;2022-11-14T13:58:23;100143.41;;;12.71;66.71
62374;BME280;48409;49.030;1.820;2022-11-14T14:03:55;100145.31;;;12.82;66.51
62374;BME280;48409;49.030;1.820;2022-11-14T14:15:08;100150.50;;;12.98;66.85
62374;BME280;48409;49.030;1.820;2022-11-14T14:18:02;100144.97;;;13.01;66.54
62374;BME280;48409;49.030;1.820;2022-11-14T14:20:47;100148.28;;;13.05;66.42
62374;BME280;48409;49.030;1.820;2022-11-14T14:23:31;100145.44;;;13.08;66.61
62374;BME280;48409;49.030;1.820;2022-11-14T14:26:09;100154.94;;;13.11;66.70
62374;BME280;48409;49.030;1.820;2022-11-14T14:31:18;100145.03;;;13.14;66.78
62374;BME280;48409;49.030;1.820;2022-11-14T14:33:46;100150.97;;;13.18;67.01
62374;BME280;48409;49.030;1.820;2022-11-14T14:36:26;100160.50;;;13.21;66.88
62374;BME280;48409;49.030;1.820;2022-11-14T14:39:17;100161.13;;;13.24;66.74
62374;BME280;48409;49.030;1.820;2022-11-14T14:41:42;100156.69;;;13.25;66.69
62374;BME280;48409;49.030;1.820;2022-11-14T14:44:18;100154.81;;;13.27;66.52
62374;BME280;48409;49.030;1.820;2022-11-14T14:46:46;100149.53;;;13.27;66.57
62374;BME280;48409;49.030;1.820;2022-11-14T14:49:17;100147.72;;;13.27;66.61
62374;BME280;48409;49.030;1.820;2022-11-14T14:51:44;100146.75;;;13.28;66.81